createdAt,value
2023-02-01T00:00:38.737Z,1.32
2023-02-01T00:03:06.713Z,1.22
2023-02-01T00:05:35.802Z,1.30
2023-02-01T00:08:02.853Z,1.30
2023-02-01T00:10:30.044Z,1.47
2023-02-01T00:12:56.999Z,1.31
2023-02-01T00:15:31.881Z,1.46
2023-02-01T00:17:59.960Z,1.36
2023-02-01T00:20:26.877Z,1.47
2023-02-01T00:22:53.964Z,1.50
2023-02-01T00:25:23.463Z,1.41
2023-02-01T00:27:51.505Z,1.28
2023-02-01T00:30:19.914Z,1.38
2023-02-01T00:32:47.126Z,1.43
2023-02-01T00:35:14.829Z,1.40
2023-02-01T00:37:41.879Z,1.33
2023-02-01T00:40:09.520Z,1.30
2023-02-01T00:42:36.482Z,1.40
2023-02-01T00:45:03.716Z,1.37
2023-02-01T00:47:31.612Z,1.29
2023-02-01T00:49:58.469Z,1.21
2023-02-01T00:52:25.603Z,1.30
2023-02-01T00:54:52.622Z,1.33
2023-02-01T00:57:19.650Z,1.35
2023-02-01T00:59:47.151Z,1.36
2023-02-01T01:02:15.698Z,1.52
2023-02-01T01:04:42.715Z,1.52
2023-02-01T01:07:10.154Z,1.43
2023-02-01T01:09:37.388Z,1.58
2023-02-01T01:12:04.753Z,1.46
2023-02-01T01:14:33.589Z,1.42
2023-02-01T01:17:00.597Z,1.49
2023-02-01T01:19:27.589Z,1.48
2023-02-01T01:21:54.793Z,1.55
2023-02-01T01:24:21.732Z,1.58
2023-02-01T01:26:48.711Z,1.58
2023-02-01T01:29:16.745Z,1.59
2023-02-01T01:31:43.762Z,1.66
2023-02-01T01:34:10.748Z,1.57
2023-02-01T01:36:37.728Z,1.57
2023-02-01T01:39:04.949Z,1.48
2023-02-01T01:41:33.847Z,1.71
2023-02-01T01:44:28.632Z,1.65
2023-02-01T01:46:55.667Z,1.49
2023-02-01T01:49:27.170Z,1.62
2023-02-01T01:52:01.540Z,1.57
2023-02-01T01:54:33.733Z,1.46
2023-02-01T01:57:06.024Z,1.54
2023-02-01T01:59:36.967Z,1.42
2023-02-01T02:02:05.420Z,1.44
2023-02-01T02:04:34.777Z,1.43
2023-02-01T02:07:22.767Z,1.40
2023-02-01T02:10:00.165Z,1.52
2023-02-01T02:12:28.890Z,1.53
2023-02-01T02:14:56.884Z,1.55
2023-02-01T02:17:41.788Z,1.62
2023-02-01T02:20:32.991Z,1.47
2023-02-01T02:23:19.342Z,1.42
2023-02-01T02:26:10.354Z,1.50
2023-02-01T02:29:03.613Z,1.56
2023-02-01T02:31:55.699Z,1.60
2023-02-01T02:34:41.505Z,1.41
2023-02-01T02:37:24.697Z,1.46
2023-02-01T02:40:10.043Z,1.50
2023-02-01T02:42:58.518Z,1.37
2023-02-01T02:45:55.012Z,1.36
2023-02-01T02:48:45.535Z,1.43
2023-02-01T02:51:46.275Z,1.44
2023-02-01T02:54:50.375Z,1.34
2023-02-01T02:57:47.863Z,1.40
2023-02-01T03:00:43.948Z,1.48
2023-02-01T03:03:29.875Z,1.46
2023-02-01T03:05:57.588Z,1.56
2023-02-01T03:08:32.266Z,1.48
2023-02-01T03:11:09.396Z,1.43
2023-02-01T03:14:00.254Z,1.46
2023-02-01T03:16:33.093Z,1.41
2023-02-01T03:19:12.508Z,1.44
2023-02-01T03:21:44.806Z,1.48
2023-02-01T03:24:50.162Z,1.56
2023-02-01T03:27:37.169Z,1.45
2023-02-01T03:30:04.649Z,1.45
2023-02-01T03:32:51.639Z,1.43
2023-02-01T03:35:25.001Z,1.36
2023-02-01T03:37:57.282Z,1.44
2023-02-01T03:40:28.957Z,1.43
2023-02-01T03:42:58.515Z,1.47
2023-02-01T03:45:32.437Z,1.33
2023-02-01T03:48:01.591Z,1.47
2023-02-01T03:50:31.334Z,1.40
2023-02-01T03:53:29.331Z,1.41
2023-02-01T03:55:57.122Z,1.39
2023-02-01T03:58:24.694Z,1.53
2023-02-01T04:00:59.118Z,1.38
2023-02-01T04:03:28.404Z,1.36
2023-02-01T04:05:56.013Z,1.53
2023-02-01T04:08:26.538Z,1.43
2023-02-01T04:10:53.523Z,1.40
2023-02-01T04:13:21.605Z,1.49
2023-02-01T04:15:50.935Z,1.50
2023-02-01T04:18:18.108Z,1.49
2023-02-01T04:20:48.301Z,1.56
2023-02-01T04:23:16.809Z,1.53
2023-02-01T04:25:43.955Z,1.51
2023-02-01T04:28:11.020Z,1.56
2023-02-01T04:30:38.150Z,1.54
2023-02-01T04:33:07.777Z,1.50
2023-02-01T04:35:35.014Z,1.61
2023-02-01T04:38:02.612Z,1.46
2023-02-01T04:40:29.647Z,1.59
2023-02-01T04:42:56.507Z,1.59
2023-02-01T04:45:23.385Z,1.56
2023-02-01T04:47:50.486Z,1.49
2023-02-01T04:50:17.544Z,1.64
2023-02-01T04:52:46.350Z,1.51
2023-02-01T04:55:15.748Z,1.55
2023-02-01T04:57:45.017Z,1.66
2023-02-01T05:00:12.469Z,1.71
2023-02-01T05:02:39.328Z,1.64
2023-02-01T05:05:06.701Z,1.71
2023-02-01T05:07:33.679Z,1.71
2023-02-01T05:10:00.597Z,1.70
2023-02-01T05:12:46.403Z,1.63
2023-02-01T05:15:13.397Z,1.55
2023-02-01T05:17:41.417Z,1.60
2023-02-01T05:20:11.191Z,1.60
2023-02-01T05:22:38.227Z,1.46
2023-02-01T05:25:08.121Z,1.59
2023-02-01T05:27:35.354Z,1.47
2023-02-01T05:30:03.934Z,1.53
2023-02-01T05:32:31.245Z,1.59
2023-02-01T05:34:58.494Z,1.42
2023-02-01T05:37:25.847Z,1.57
2023-02-01T05:39:53.054Z,1.48
2023-02-01T05:42:19.974Z,1.44
2023-02-01T05:44:46.952Z,1.45
2023-02-01T05:47:14.625Z,1.52
2023-02-01T05:49:42.014Z,1.52
2023-02-01T05:52:09.058Z,1.60
2023-02-01T05:54:36.214Z,1.69
2023-02-01T05:57:03.191Z,1.63
2023-02-01T05:59:30.494Z,1.64
2023-02-01T06:01:57.439Z,1.58
2023-02-01T06:04:25.345Z,1.68
2023-02-01T06:06:52.255Z,1.51
2023-02-01T06:09:19.203Z,1.49
2023-02-01T06:11:46.156Z,1.55
2023-02-01T06:14:13.056Z,1.53
2023-02-01T06:16:40.051Z,1.63
2023-02-01T06:19:06.931Z,1.51
2023-02-01T06:21:34.554Z,1.58
2023-02-01T06:24:01.582Z,1.66
2023-02-01T06:26:29.812Z,1.72
2023-02-01T06:28:57.344Z,1.63
2023-02-01T06:31:24.791Z,1.70
2023-02-01T06:33:52.949Z,1.67
2023-02-01T06:36:22.310Z,1.67
2023-02-01T06:38:49.832Z,1.62
2023-02-01T06:41:18.135Z,1.43
2023-02-01T06:43:46.643Z,1.59
2023-02-01T06:46:14.720Z,1.48
2023-02-01T06:48:42.140Z,1.51
2023-02-01T06:51:21.058Z,1.63
2023-02-01T06:53:48.026Z,1.53
2023-02-01T06:56:16.933Z,1.49
2023-02-01T06:58:43.845Z,1.55
2023-02-01T07:01:11.830Z,1.55
2023-02-01T07:03:39.435Z,1.47
2023-02-01T07:06:08.008Z,1.49
2023-02-01T07:08:37.067Z,1.48
2023-02-01T07:11:12.650Z,1.44
2023-02-01T07:13:40.218Z,1.49
2023-02-01T07:16:11.326Z,1.59
2023-02-01T07:18:40.372Z,1.53
2023-02-01T07:21:08.104Z,1.55
2023-02-01T07:23:35.793Z,1.57
2023-02-01T07:26:06.158Z,1.55
2023-02-01T07:28:35.559Z,1.42
2023-02-01T07:31:06.634Z,1.40
2023-02-01T07:33:34.056Z,1.42
2023-02-01T07:36:06.030Z,1.53
2023-02-01T07:38:33.645Z,1.41
2023-02-01T07:41:02.433Z,1.51
2023-02-01T07:43:29.950Z,1.53
2023-02-01T07:45:57.711Z,1.33
2023-02-01T07:48:26.250Z,1.53
2023-02-01T07:51:14.396Z,1.52
2023-02-01T07:53:42.270Z,1.52
2023-02-01T07:56:17.574Z,1.63
2023-02-01T07:58:49.461Z,1.59
2023-02-01T08:01:21.393Z,1.55
2023-02-01T08:03:57.241Z,1.52
2023-02-01T08:06:25.871Z,1.54
2023-02-01T08:08:53.992Z,1.65
2023-02-01T08:11:22.609Z,1.78
2023-02-01T08:13:50.163Z,1.71
2023-02-01T08:16:19.010Z,1.71
2023-02-01T08:18:46.395Z,1.75
2023-02-01T08:21:16.765Z,1.70
2023-02-01T08:23:44.691Z,1.87
2023-02-01T08:26:17.523Z,1.80
2023-02-01T08:28:47.733Z,1.78
2023-02-01T08:31:16.951Z,1.74
2023-02-01T08:33:45.386Z,1.65
2023-02-01T08:36:12.579Z,1.72
2023-02-01T08:38:40.718Z,1.72
2023-02-01T08:41:13.704Z,1.81
2023-02-01T08:43:41.360Z,1.87
2023-02-01T08:46:09.299Z,1.88
2023-02-01T08:48:36.616Z,1.91
2023-02-01T08:51:05.818Z,2.03
2023-02-01T08:53:33.287Z,1.96
2023-02-01T08:56:00.222Z,2.05
2023-02-01T08:58:27.308Z,2.12
2023-02-01T09:00:54.326Z,1.92
2023-02-01T09:03:21.412Z,1.92
2023-02-01T09:05:50.091Z,1.97
2023-02-01T09:08:17.659Z,1.99
2023-02-01T09:10:44.635Z,1.78
2023-02-01T09:13:12.207Z,1.77
2023-02-01T09:15:39.251Z,1.81
2023-02-01T09:18:06.299Z,1.83
2023-02-01T09:20:33.278Z,1.99
2023-02-01T09:23:01.144Z,2.10
2023-02-01T09:25:28.606Z,2.17
2023-02-01T09:27:55.509Z,2.01
2023-02-01T09:30:22.760Z,2.28
2023-02-01T09:32:49.841Z,2.41
2023-02-01T09:35:16.785Z,2.26
2023-02-01T09:37:43.637Z,2.20
2023-02-01T09:40:18.351Z,2.26
2023-02-01T09:43:03.766Z,2.20
2023-02-01T09:45:45.523Z,2.07
2023-02-01T09:48:21.188Z,2.26
2023-02-01T09:50:57.532Z,2.18
2023-02-01T09:53:38.606Z,2.05
2023-02-01T09:56:15.502Z,1.98
2023-02-01T09:58:44.324Z,1.93
2023-02-01T10:01:25.306Z,1.75
2023-02-01T10:04:00.617Z,1.86
2023-02-01T10:06:50.669Z,1.63
2023-02-01T10:09:36.393Z,1.76
2023-02-01T10:12:45.330Z,1.77
2023-02-01T10:15:37.054Z,1.68
2023-02-01T10:18:28.379Z,1.76
2023-02-01T10:21:10.341Z,1.70
2023-02-01T10:24:01.141Z,1.83
2023-02-01T10:26:45.753Z,1.90
2023-02-01T10:29:19.772Z,1.89
2023-02-01T10:31:47.299Z,1.83
2023-02-01T10:34:22.876Z,1.75
2023-02-01T10:37:09.524Z,1.81
2023-02-01T10:39:38.027Z,1.91
2023-02-01T10:42:05.215Z,1.91
2023-02-01T10:44:41.532Z,1.78
2023-02-01T10:47:11.379Z,1.67
2023-02-01T10:49:53.519Z,1.70
2023-02-01T10:52:36.237Z,1.62
2023-02-01T10:55:41.131Z,1.69
2023-02-01T10:58:26.796Z,1.84
2023-02-01T11:01:06.379Z,1.97
2023-02-01T11:03:35.041Z,1.86
2023-02-01T11:06:31.262Z,1.71
2023-02-01T11:09:10.872Z,1.94
2023-02-01T11:11:50.131Z,1.74
2023-02-01T11:14:27.302Z,1.90
2023-02-01T11:16:55.383Z,1.80
2023-02-01T11:19:22.922Z,1.91
2023-02-01T11:21:55.154Z,1.89
2023-02-01T11:24:26.955Z,1.84
2023-02-01T11:27:06.408Z,1.72
2023-02-01T11:29:41.437Z,1.60
2023-02-01T11:32:11.097Z,1.73
2023-02-01T11:34:46.853Z,1.57
2023-02-01T11:37:20.895Z,1.62
2023-02-01T11:40:02.654Z,1.53
2023-02-01T11:42:33.653Z,1.44
2023-02-01T11:45:22.048Z,1.46
2023-02-01T11:47:53.373Z,1.61
2023-02-01T11:50:30.051Z,1.50
2023-02-01T11:52:56.969Z,1.47
2023-02-01T11:55:26.746Z,1.54
2023-02-01T11:57:56.527Z,1.49
2023-02-01T12:00:38.519Z,1.60
2023-02-01T12:03:30.004Z,1.35
2023-02-01T12:06:01.416Z,1.43
2023-02-01T12:08:34.404Z,1.37
2023-02-01T12:11:45.937Z,1.43
2023-02-01T12:14:24.053Z,1.37
2023-02-01T12:17:09.515Z,1.44
2023-02-01T12:19:49.975Z,1.45
2023-02-01T12:22:19.814Z,1.59
2023-02-01T12:25:21.389Z,1.53
2023-02-01T12:28:07.495Z,1.56
2023-02-01T12:30:43.432Z,1.48
2023-02-01T12:33:15.913Z,1.51
2023-02-01T12:36:13.954Z,1.53
2023-02-01T12:39:26.081Z,1.58
2023-02-01T12:41:55.839Z,1.54
2023-02-01T12:44:34.832Z,1.58
2023-02-01T12:47:01.791Z,1.48
2023-02-01T12:49:32.608Z,1.54
2023-02-01T12:52:03.976Z,1.51
2023-02-01T12:54:44.795Z,1.60
2023-02-01T12:57:24.262Z,1.52
2023-02-01T13:00:23.698Z,1.54
2023-02-01T13:02:53.737Z,1.52
2023-02-01T13:05:25.224Z,1.50
2023-02-01T13:08:09.415Z,1.40
2023-02-01T13:10:43.432Z,1.47
2023-02-01T13:13:44.538Z,1.54
2023-02-01T13:16:28.204Z,1.47
2023-02-01T13:19:01.806Z,1.59
2023-02-01T13:21:35.314Z,1.62
2023-02-01T13:24:03.286Z,1.73
2023-02-01T13:26:30.165Z,1.65
2023-02-01T13:29:08.213Z,1.53
2023-02-01T13:31:40.613Z,1.60
2023-02-01T13:34:16.906Z,1.52
2023-02-01T13:37:17.929Z,1.50
2023-02-01T13:40:18.808Z,1.48
2023-02-01T13:42:58.824Z,1.60
2023-02-01T13:45:32.658Z,1.56
2023-02-01T13:48:02.664Z,1.50
2023-02-01T13:50:38.661Z,1.42
2023-02-01T13:53:28.950Z,1.35
2023-02-01T13:56:09.055Z,1.47
2023-02-01T13:58:38.817Z,1.55
2023-02-01T14:01:24.234Z,1.44
2023-02-01T14:04:06.840Z,1.46
2023-02-01T14:06:36.349Z,1.45
2023-02-01T14:09:09.388Z,1.30
2023-02-01T14:11:43.912Z,1.33
2023-02-01T14:14:16.643Z,1.41
2023-02-01T14:16:44.819Z,1.46
2023-02-01T14:19:22.833Z,1.32
2023-02-01T14:21:49.729Z,1.43
2023-02-01T14:24:27.527Z,1.52
2023-02-01T14:26:56.964Z,1.43
2023-02-01T14:29:32.499Z,1.44
2023-02-01T14:32:17.761Z,1.44
2023-02-01T14:34:47.821Z,1.44
2023-02-01T14:37:17.573Z,1.39
2023-02-01T14:39:47.535Z,1.41
2023-02-01T14:42:25.815Z,1.48
2023-02-01T14:44:58.586Z,1.46
2023-02-01T14:47:30.012Z,1.39
2023-02-01T14:50:19.669Z,1.40
2023-02-01T14:52:49.304Z,1.42
2023-02-01T14:55:22.925Z,1.37
2023-02-01T14:57:53.738Z,1.32
2023-02-01T15:00:27.620Z,1.43
2023-02-01T15:02:57.436Z,1.44
2023-02-01T15:05:31.748Z,1.39
2023-02-01T15:08:12.586Z,1.44
2023-02-01T15:10:45.757Z,1.32
2023-02-01T15:13:25.708Z,1.33
2023-02-01T15:16:06.751Z,1.27
2023-02-01T15:18:34.349Z,1.37
2023-02-01T15:21:26.478Z,1.32
2023-02-01T15:23:51.908Z,1.40
2023-02-01T15:26:33.155Z,1.44
2023-02-01T15:29:00.113Z,1.18
2023-02-01T15:31:36.206Z,1.24
2023-02-01T15:34:03.498Z,1.26
2023-02-01T15:36:32.846Z,1.29
2023-02-01T15:39:26.767Z,1.24
2023-02-01T15:42:03.398Z,1.25
2023-02-01T15:44:33.113Z,1.22
2023-02-01T15:47:01.300Z,1.19
2023-02-01T15:49:32.671Z,1.22
2023-02-01T15:52:02.241Z,1.08
2023-02-01T15:54:33.964Z,1.27
2023-02-01T15:57:03.464Z,1.22
2023-02-01T15:59:45.710Z,1.05
2023-02-01T16:02:53.126Z,1.08
2023-02-01T16:05:40.992Z,1.12
2023-02-01T16:08:16.532Z,1.06
2023-02-01T16:10:51.602Z,1.03
2023-02-01T16:13:20.084Z,1.04
2023-02-01T16:15:47.723Z,1.03
2023-02-01T16:18:17.791Z,1.10
2023-02-01T16:20:46.499Z,0.99
2023-02-01T16:23:13.775Z,0.91
2023-02-01T16:25:41.160Z,1.06
2023-02-01T16:28:09.437Z,1.07
2023-02-01T16:30:36.951Z,1.14
2023-02-01T16:33:06.011Z,1.03
2023-02-01T16:35:38.245Z,0.90
2023-02-01T16:38:16.226Z,1.04
2023-02-01T16:40:44.496Z,1.11
2023-02-01T16:43:15.949Z,1.10
2023-02-01T16:45:50.065Z,1.04
2023-02-01T16:48:29.137Z,1.16
2023-02-01T16:50:58.618Z,1.19
2023-02-01T16:53:28.657Z,1.16
2023-02-01T16:55:55.730Z,1.12
2023-02-01T16:58:22.722Z,1.12
2023-02-01T17:00:50.456Z,1.12
2023-02-01T17:03:17.921Z,1.11
2023-02-01T17:05:49.593Z,1.08
2023-02-01T17:08:20.390Z,1.05
2023-02-01T17:10:47.378Z,1.00
2023-02-01T17:13:16.174Z,0.98
2023-02-01T17:15:55.213Z,0.97
2023-02-01T17:18:22.568Z,1.05
2023-02-01T17:20:49.627Z,1.00
2023-02-01T17:23:17.552Z,0.95
2023-02-01T17:25:44.415Z,0.98
2023-02-01T17:28:11.330Z,0.98
2023-02-01T17:30:39.576Z,1.03
2023-02-01T17:33:35.663Z,0.97
2023-02-01T17:36:05.074Z,0.88
2023-02-01T17:38:32.192Z,1.01
2023-02-01T17:40:59.172Z,0.98
2023-02-01T17:43:26.483Z,0.90
2023-02-01T17:46:06.281Z,0.82
2023-02-01T17:48:33.271Z,0.95
2023-02-01T17:51:01.431Z,0.81
2023-02-01T17:53:29.868Z,0.88
2023-02-01T17:55:58.509Z,0.83
2023-02-01T17:58:26.707Z,0.86
2023-02-01T18:00:54.640Z,0.95
2023-02-01T18:03:35.730Z,0.98
2023-02-01T18:06:04.310Z,0.95
2023-02-01T18:08:34.587Z,0.90
2023-02-01T18:11:02.704Z,1.01
2023-02-01T18:13:31.515Z,1.06
2023-02-01T18:16:02.659Z,1.02
2023-02-01T18:18:31.263Z,0.99
2023-02-01T18:20:58.741Z,0.86
2023-02-01T18:23:25.961Z,0.87
2023-02-01T18:25:53.007Z,0.86
2023-02-01T18:28:20.727Z,0.91
2023-02-01T18:30:50.930Z,0.88
2023-02-01T18:33:20.109Z,0.88
2023-02-01T18:35:47.383Z,0.94
2023-02-01T18:38:14.816Z,0.96
2023-02-01T18:40:53.564Z,0.90
2023-02-01T18:43:21.253Z,0.92
2023-02-01T18:45:49.038Z,0.84
2023-02-01T18:48:17.480Z,0.87
2023-02-01T18:50:46.080Z,0.84
2023-02-01T18:53:16.223Z,0.68
2023-02-01T18:55:43.305Z,0.68
2023-02-01T18:58:13.579Z,0.64
2023-02-01T19:00:40.542Z,0.63
2023-02-01T19:03:07.686Z,0.64
2023-02-01T19:05:34.601Z,0.70
2023-02-01T19:08:01.578Z,0.52
2023-02-01T19:10:28.781Z,0.55
2023-02-01T19:12:56.048Z,0.51
2023-02-01T19:15:23.799Z,0.54
2023-02-01T19:17:55.117Z,0.51
2023-02-01T19:20:25.219Z,0.45
2023-02-01T19:22:54.158Z,0.45
2023-02-01T19:25:24.403Z,0.53
2023-02-01T19:27:52.673Z,0.52
2023-02-01T19:30:20.874Z,0.47
2023-02-01T19:32:48.066Z,0.49
2023-02-01T19:35:19.676Z,0.49
2023-02-01T19:37:47.810Z,0.45
2023-02-01T19:40:18.080Z,0.44
2023-02-01T19:42:46.629Z,0.39
2023-02-01T19:45:13.739Z,0.46
2023-02-01T19:47:40.713Z,0.61
2023-02-01T19:50:08.693Z,0.59
2023-02-01T19:52:36.088Z,0.50
2023-02-01T19:55:05.054Z,0.51
2023-02-01T19:57:32.338Z,0.58
2023-02-01T19:59:59.248Z,0.52
2023-02-01T20:02:28.034Z,0.35
2023-02-01T20:04:55.210Z,0.38
2023-02-01T20:07:22.482Z,0.32
2023-02-01T20:09:49.417Z,0.27
2023-02-01T20:12:16.811Z,0.28
2023-02-01T20:14:44.280Z,0.26
2023-02-01T20:17:15.027Z,0.16
2023-02-01T20:19:42.143Z,0.22
2023-02-01T20:22:09.323Z,0.27
2023-02-01T20:24:36.587Z,0.27
2023-02-01T20:27:04.656Z,0.35
2023-02-01T20:29:31.743Z,0.42
2023-02-01T20:31:58.673Z,0.33
2023-02-01T20:34:25.629Z,0.40
2023-02-01T20:37:02.838Z,0.34
2023-02-01T20:39:30.408Z,0.43
2023-02-01T20:41:57.311Z,0.26
2023-02-01T20:44:24.223Z,0.24
2023-02-01T20:46:51.329Z,0.26
2023-02-01T20:49:18.252Z,0.34
2023-02-01T20:51:45.156Z,0.41
2023-02-01T20:54:12.127Z,0.41
2023-02-01T20:56:39.757Z,0.48
2023-02-01T20:59:10.814Z,0.42
2023-02-01T21:01:51.858Z,0.35
2023-02-01T21:04:27.285Z,0.22
2023-02-01T21:06:55.692Z,0.23
2023-02-01T21:09:23.643Z,0.23
2023-02-01T21:11:51.445Z,0.26
2023-02-01T21:14:20.306Z,0.29
2023-02-01T21:16:48.863Z,0.35
2023-02-01T21:19:19.762Z,0.36
2023-02-01T21:21:46.823Z,0.46
2023-02-01T21:24:13.667Z,0.39
2023-02-01T21:26:43.416Z,0.42
2023-02-01T21:29:12.840Z,0.44
2023-02-01T21:31:41.372Z,0.42
2023-02-01T21:34:09.315Z,0.49
2023-02-01T21:36:36.363Z,0.29
2023-02-01T21:39:06.815Z,0.18
2023-02-01T21:41:54.509Z,0.22
2023-02-01T21:44:22.603Z,0.26
2023-02-01T21:46:49.849Z,0.27
2023-02-01T21:49:17.341Z,0.25
2023-02-01T21:51:44.388Z,0.32
2023-02-01T21:54:12.113Z,0.33
2023-02-01T21:56:40.478Z,0.42
2023-02-01T21:59:10.195Z,0.39
2023-02-01T22:01:37.698Z,0.43
2023-02-01T22:04:04.728Z,0.40
2023-02-01T22:06:37.388Z,0.39
2023-02-01T22:09:05.685Z,0.33
2023-02-01T22:11:33.212Z,0.38
2023-02-01T22:14:00.315Z,0.27
2023-02-01T22:16:27.345Z,0.23
2023-02-01T22:18:54.589Z,0.24
2023-02-01T22:21:24.136Z,0.19
2023-02-01T22:23:54.252Z,0.30
2023-02-01T22:26:22.622Z,0.33
2023-02-01T22:28:49.913Z,0.36
2023-02-01T22:31:17.871Z,0.41
2023-02-01T22:33:50.141Z,0.35
2023-02-01T22:36:18.004Z,0.45
2023-02-01T22:38:46.733Z,0.46
2023-02-01T22:41:13.859Z,0.40
2023-02-01T22:43:41.472Z,0.35
2023-02-01T22:46:13.323Z,0.24
2023-02-01T22:48:42.539Z,0.32
2023-02-01T22:51:24.229Z,0.32
2023-02-01T22:53:57.138Z,0.45
2023-02-01T22:56:33.294Z,0.38
2023-02-01T22:59:06.168Z,0.47
2023-02-01T23:01:34.408Z,0.33
2023-02-01T23:04:03.576Z,0.49
2023-02-01T23:06:31.698Z,0.53
2023-02-01T23:09:02.139Z,0.41
2023-02-01T23:11:30.118Z,0.42
2023-02-01T23:13:57.482Z,0.31
2023-02-01T23:16:24.420Z,0.40
2023-02-01T23:18:51.348Z,0.41
2023-02-01T23:21:20.405Z,0.42
2023-02-01T23:23:49.178Z,0.30
2023-02-01T23:26:16.974Z,0.37
2023-02-01T23:28:44.658Z,0.28
2023-02-01T23:31:13.581Z,0.36
2023-02-01T23:33:41.144Z,0.26
2023-02-01T23:36:11.487Z,0.39
2023-02-01T23:38:38.618Z,0.38
2023-02-01T23:41:07.522Z,0.35
2023-02-01T23:43:52.983Z,0.34
2023-02-01T23:46:20.905Z,0.25
2023-02-01T23:48:48.937Z,0.26
2023-02-01T23:51:16.468Z,0.32
2023-02-01T23:53:44.953Z,0.23
2023-02-01T23:56:23.628Z,0.23
2023-02-01T23:58:51.991Z,0.17
